Terminal Aerodrome Forecast
Issued by NWS Chicago, IL

Home | Current Version | Previous Version | Graphics & Text | Print | Product List | Glossary On
Versions: 1 2 3 4 5 6 7 8 9 10 11 12 13 14 15 16 17 18 19 20 21 22 23 24 25 26 27 28 29 30 31 32
000
FTUS43 KLOT 161100
TAFRFD
TAF
KRFD 161130Z 1612/1712 15009KT P6SM BKN100
     FM161400 17015G25KT P6SM SCT070 BKN100
     FM161800 17022G33KT P6SM BKN120
     FM170400 16016KT P6SM BKN050 WS020/19050KT=

USA.gov is the U.S. government's official web portal to all federal, state and local government web resources and services.